sensor_id;sensor_type;location;lat;lon;timestamp;temperature;humidity
3756;DHT22;1893;52.526;13.360;2023-05-10T00:00:00;13.20;77.40
3756;DHT22;1893;52.526;13.360;2023-05-10T00:02:26;13.10;77.80
3756;DHT22;1893;52.526;13.360;2023-05-10T00:04:52;13.10;77.90
3756;DHT22;1893;52.526;13.360;2023-05-10T00:07:18;13.10;78.70
3756;DHT22;1893;52.526;13.360;2023-05-10T00:09:43;13.10;79.20
3756;DHT22;1893;52.526;13.360;2023-05-10T00:12:09;13.10;79.50
3756;DHT22;1893;52.526;13.360;2023-05-10T00:14:35;13.10;79.90
3756;DHT22;1893;52.526;13.360;2023-05-10T00:17:01;13.00;80.20
3756;DHT22;1893;52.526;13.360;2023-05-10T00:19:26;13.00;80.60
3756;DHT22;1893;52.526;13.360;2023-05-10T00:21:52;13.00;81.40
3756;DHT22;1893;52.526;13.360;2023-05-10T00:24:17;13.00;81.40
3756;DHT22;1893;52.526;13.360;2023-05-10T00:26:43;13.00;81.50
3756;DHT22;1893;52.526;13.360;2023-05-10T00:29:09;13.00;82.10
3756;DHT22;1893;52.526;13.360;2023-05-10T00:31:34;13.00;82.00
3756;DHT22;1893;52.526;13.360;2023-05-10T00:34:00;13.00;82.50
3756;DHT22;1893;52.526;13.360;2023-05-10T00:36:25;13.00;82.80
3756;DHT22;1893;52.526;13.360;2023-05-10T00:38:51;13.00;83.40
3756;DHT22;1893;52.526;13.360;2023-05-10T00:41:17;13.00;84.90
3756;DHT22;1893;52.526;13.360;2023-05-10T00:43:42;13.00;84.00
3756;DHT22;1893;52.526;13.360;2023-05-10T00:46:08;12.90;84.40
3756;DHT22;1893;52.526;13.360;2023-05-10T00:48:34;12.90;85.20
3756;DHT22;1893;52.526;13.360;2023-05-10T00:51:01;12.80;85.80
3756;DHT22;1893;52.526;13.360;2023-05-10T00:53:27;12.70;86.50
3756;DHT22;1893;52.526;13.360;2023-05-10T00:55:53;12.70;86.60
3756;DHT22;1893;52.526;13.360;2023-05-10T00:58:18;12.60;87.40
3756;DHT22;1893;52.526;13.360;2023-05-10T01:00:46;12.60;87.70
3756;DHT22;1893;52.526;13.360;2023-05-10T01:03:12;12.60;88.00
3756;DHT22;1893;52.526;13.360;2023-05-10T01:05:38;12.50;88.20
3756;DHT22;1893;52.526;13.360;2023-05-10T01:08:04;12.50;88.90
3756;DHT22;1893;52.526;13.360;2023-05-10T01:10:30;12.50;88.50
3756;DHT22;1893;52.526;13.360;2023-05-10T01:12:56;12.40;89.20
3756;DHT22;1893;52.526;13.360;2023-05-10T01:15:22;12.40;90.00
3756;DHT22;1893;52.526;13.360;2023-05-10T01:17:48;12.40;90.00
3756;DHT22;1893;52.526;13.360;2023-05-10T01:20:14;12.30;90.50
3756;DHT22;1893;52.526;13.360;2023-05-10T01:34:16;12.10;91.50
3756;DHT22;1893;52.526;13.360;2023-05-10T01:36:48;12.10;92.10
3756;DHT22;1893;52.526;13.360;2023-05-10T01:39:50;12.00;92.40
3756;DHT22;1893;52.526;13.360;2023-05-10T01:42:26;12.00;92.90
3756;DHT22;1893;52.526;13.360;2023-05-10T01:48:04;12.00;93.40
3756;DHT22;1893;52.526;13.360;2023-05-10T01:50:31;11.90;94.10
3756;DHT22;1893;52.526;13.360;2023-05-10T01:52:59;11.80;94.20
3756;DHT22;1893;52.526;13.360;2023-05-10T01:55:28;11.80;94.40
3756;DHT22;1893;52.526;13.360;2023-05-10T01:58:08;11.80;94.80
3756;DHT22;1893;52.526;13.360;2023-05-10T02:00:34;11.70;95.20
3756;DHT22;1893;52.526;13.360;2023-05-10T02:03:05;11.70;95.50
3756;DHT22;1893;52.526;13.360;2023-05-10T02:05:33;11.60;95.80
3756;DHT22;1893;52.526;13.360;2023-05-10T02:08:00;11.70;96.60
3756;DHT22;1893;52.526;13.360;2023-05-10T02:10:27;11.60;96.80
3756;DHT22;1893;52.526;13.360;2023-05-10T02:12:54;11.60;97.40
3756;DHT22;1893;52.526;13.360;2023-05-10T02:15:23;11.60;97.60
3756;DHT22;1893;52.526;13.360;2023-05-10T02:17:50;11.50;97.80
3756;DHT22;1893;52.526;13.360;2023-05-10T02:20:18;11.50;98.30
3756;DHT22;1893;52.526;13.360;2023-05-10T02:22:45;11.70;99.10
3756;DHT22;1893;52.526;13.360;2023-05-10T02:25:13;11.40;99.00
3756;DHT22;1893;52.526;13.360;2023-05-10T02:27:41;11.40;99.20
3756;DHT22;1893;52.526;13.360;2023-05-10T02:30:10;11.40;99.90
3756;DHT22;1893;52.526;13.360;2023-05-10T02:32:36;11.40;99.90
3756;DHT22;1893;52.526;13.360;2023-05-10T02:35:03;11.40;99.90
3756;DHT22;1893;52.526;13.360;2023-05-10T02:37:30;11.40;99.90
3756;DHT22;1893;52.526;13.360;2023-05-10T02:39:56;11.30;99.90
3756;DHT22;1893;52.526;13.360;2023-05-10T02:42:26;11.30;99.90
3756;DHT22;1893;52.526;13.360;2023-05-10T02:44:56;11.30;99.90
3756;DHT22;1893;52.526;13.360;2023-05-10T02:47:24;11.30;99.90
3756;DHT22;1893;52.526;13.360;2023-05-10T02:49:50;11.30;99.90
3756;DHT22;1893;52.526;13.360;2023-05-10T02:52:21;11.30;99.90
3756;DHT22;1893;52.526;13.360;2023-05-10T02:54:50;11.30;99.90
3756;DHT22;1893;52.526;13.360;2023-05-10T02:57:28;11.20;99.90
3756;DHT22;1893;52.526;13.360;2023-05-10T02:59:54;11.20;99.90
3756;DHT22;1893;52.526;13.360;2023-05-10T03:02:21;11.20;99.90
3756;DHT22;1893;52.526;13.360;2023-05-10T03:04:46;11.20;99.90
3756;DHT22;1893;52.526;13.360;2023-05-10T03:07:12;11.20;99.90
3756;DHT22;1893;52.526;13.360;2023-05-10T03:09:38;11.10;99.90
3756;DHT22;1893;52.526;13.360;2023-05-10T03:12:15;11.10;99.90
3756;DHT22;1893;52.526;13.360;2023-05-10T03:15:33;11.00;99.90
3756;DHT22;1893;52.526;13.360;2023-05-10T03:20:31;11.00;99.90
3756;DHT22;1893;52.526;13.360;2023-05-10T03:23:04;10.90;99.90
3756;DHT22;1893;52.526;13.360;2023-05-10T03:25:31;10.80;99.90
3756;DHT22;1893;52.526;13.360;2023-05-10T03:27:58;10.90;99.90
3756;DHT22;1893;52.526;13.360;2023-05-10T03:30:26;11.00;99.90
3756;DHT22;1893;52.526;13.360;2023-05-10T03:32:52;11.00;99.90
3756;DHT22;1893;52.526;13.360;2023-05-10T03:35:17;10.90;99.90
3756;DHT22;1893;52.526;13.360;2023-05-10T03:37:43;10.90;99.90
3756;DHT22;1893;52.526;13.360;2023-05-10T03:40:09;10.90;99.90
3756;DHT22;1893;52.526;13.360;2023-05-10T03:42:36;10.90;99.90
3756;DHT22;1893;52.526;13.360;2023-05-10T03:45:01;10.90;99.90
3756;DHT22;1893;52.526;13.360;2023-05-10T03:47:27;10.90;99.90
3756;DHT22;1893;52.526;13.360;2023-05-10T03:49:53;10.90;99.90
3756;DHT22;1893;52.526;13.360;2023-05-10T03:52:18;10.90;99.90
3756;DHT22;1893;52.526;13.360;2023-05-10T03:54:44;10.80;99.90
3756;DHT22;1893;52.526;13.360;2023-05-10T03:57:09;10.90;99.90
3756;DHT22;1893;52.526;13.360;2023-05-10T03:59:35;10.90;99.90
3756;DHT22;1893;52.526;13.360;2023-05-10T04:02:01;10.80;99.90
3756;DHT22;1893;52.526;13.360;2023-05-10T04:04:26;10.80;99.90
3756;DHT22;1893;52.526;13.360;2023-05-10T04:06:52;10.90;99.90
3756;DHT22;1893;52.526;13.360;2023-05-10T04:09:17;11.00;99.90
3756;DHT22;1893;52.526;13.360;2023-05-10T04:11:43;10.90;99.90
3756;DHT22;1893;52.526;13.360;2023-05-10T04:14:09;10.90;99.90
3756;DHT22;1893;52.526;13.360;2023-05-10T04:16:34;11.00;99.90
3756;DHT22;1893;52.526;13.360;2023-05-10T04:19:00;10.90;99.90
3756;DHT22;1893;52.526;13.360;2023-05-10T04:21:26;11.00;99.90
3756;DHT22;1893;52.526;13.360;2023-05-10T04:23:51;11.00;99.90
3756;DHT22;1893;52.526;13.360;2023-05-10T04:26:17;11.10;99.90
3756;DHT22;1893;52.526;13.360;2023-05-10T04:28:42;11.20;99.90
3756;DHT22;1893;52.526;13.360;2023-05-10T04:31:09;11.10;99.90
3756;DHT22;1893;52.526;13.360;2023-05-10T04:33:36;11.10;99.90
3756;DHT22;1893;52.526;13.360;2023-05-10T04:36:02;11.10;99.90
3756;DHT22;1893;52.526;13.360;2023-05-10T04:38:29;11.10;99.90
3756;DHT22;1893;52.526;13.360;2023-05-10T04:41:03;11.20;99.90
3756;DHT22;1893;52.526;13.360;2023-05-10T04:43:28;11.20;99.90
3756;DHT22;1893;52.526;13.360;2023-05-10T04:45:56;11.30;99.90
3756;DHT22;1893;52.526;13.360;2023-05-10T04:48:22;11.40;99.90
3756;DHT22;1893;52.526;13.360;2023-05-10T04:50:47;11.40;99.90
3756;DHT22;1893;52.526;13.360;2023-05-10T04:53:13;11.50;99.90
3756;DHT22;1893;52.526;13.360;2023-05-10T04:55:39;11.50;99.90
3756;DHT22;1893;52.526;13.360;2023-05-10T04:58:05;11.50;99.90
3756;DHT22;1893;52.526;13.360;2023-05-10T05:00:30;11.60;99.90
3756;DHT22;1893;52.526;13.360;2023-05-10T05:02:56;11.60;99.90
3756;DHT22;1893;52.526;13.360;2023-05-10T05:05:21;11.70;99.90
3756;DHT22;1893;52.526;13.360;2023-05-10T05:07:47;11.80;99.90
3756;DHT22;1893;52.526;13.360;2023-05-10T05:10:12;11.80;99.90
3756;DHT22;1893;52.526;13.360;2023-05-10T05:12:38;12.00;99.90
3756;DHT22;1893;52.526;13.360;2023-05-10T05:15:04;11.90;99.90
3756;DHT22;1893;52.526;13.360;2023-05-10T05:17:30;12.10;99.90
3756;DHT22;1893;52.526;13.360;2023-05-10T05:19:56;12.10;99.90
3756;DHT22;1893;52.526;13.360;2023-05-10T05:22:22;12.20;99.90
3756;DHT22;1893;52.526;13.360;2023-05-10T05:24:56;12.30;99.90
3756;DHT22;1893;52.526;13.360;2023-05-10T05:27:24;12.40;99.90
3756;DHT22;1893;52.526;13.360;2023-05-10T05:29:55;12.50;99.90
3756;DHT22;1893;52.526;13.360;2023-05-10T05:32:21;12.60;99.90
3756;DHT22;1893;52.526;13.360;2023-05-10T05:34:47;12.70;99.90
3756;DHT22;1893;52.526;13.360;2023-05-10T05:37:17;12.80;99.90
3756;DHT22;1893;52.526;13.360;2023-05-10T05:39:43;12.90;99.90
3756;DHT22;1893;52.526;13.360;2023-05-10T05:42:10;13.00;99.90
3756;DHT22;1893;52.526;13.360;2023-05-10T05:44:35;13.10;99.90
3756;DHT22;1893;52.526;13.360;2023-05-10T05:47:01;13.30;99.90
3756;DHT22;1893;52.526;13.360;2023-05-10T05:49:27;13.30;99.90
3756;DHT22;1893;52.526;13.360;2023-05-10T05:51:53;13.50;99.90
3756;DHT22;1893;52.526;13.360;2023-05-10T05:54:18;13.50;99.90
3756;DHT22;1893;52.526;13.360;2023-05-10T05:56:44;13.70;99.90
3756;DHT22;1893;52.526;13.360;2023-05-10T05:59:10;13.70;99.90
3756;DHT22;1893;52.526;13.360;2023-05-10T06:01:36;13.70;99.90
3756;DHT22;1893;52.526;13.360;2023-05-10T06:04:02;13.70;99.90
3756;DHT22;1893;52.526;13.360;2023-05-10T06:06:28;13.90;99.90
3756;DHT22;1893;52.526;13.360;2023-05-10T06:08:53;14.00;99.90
3756;DHT22;1893;52.526;13.360;2023-05-10T06:11:19;14.00;99.90
3756;DHT22;1893;52.526;13.360;2023-05-10T06:13:46;14.10;99.90
3756;DHT22;1893;52.526;13.360;2023-05-10T06:16:12;14.20;99.90
3756;DHT22;1893;52.526;13.360;2023-05-10T06:18:38;14.20;99.90
3756;DHT22;1893;52.526;13.360;2023-05-10T06:21:04;14.30;99.90
3756;DHT22;1893;52.526;13.360;2023-05-10T06:23:29;14.20;99.90
3756;DHT22;1893;52.526;13.360;2023-05-10T06:25:55;14.30;99.90
3756;DHT22;1893;52.526;13.360;2023-05-10T06:28:20;14.30;99.90
3756;DHT22;1893;52.526;13.360;2023-05-10T06:30:46;14.40;99.90
3756;DHT22;1893;52.526;13.360;2023-05-10T06:33:12;14.40;99.90
3756;DHT22;1893;52.526;13.360;2023-05-10T06:35:37;14.50;99.90
3756;DHT22;1893;52.526;13.360;2023-05-10T06:38:04;14.60;99.90
3756;DHT22;1893;52.526;13.360;2023-05-10T06:40:29;14.70;99.90
3756;DHT22;1893;52.526;13.360;2023-05-10T06:42:55;14.80;99.90
3756;DHT22;1893;52.526;13.360;2023-05-10T06:45:20;14.80;99.90
3756;DHT22;1893;52.526;13.360;2023-05-10T06:47:46;15.00;99.90
3756;DHT22;1893;52.526;13.360;2023-05-10T06:50:12;15.10;99.90
3756;DHT22;1893;52.526;13.360;2023-05-10T06:52:38;15.20;99.90
3756;DHT22;1893;52.526;13.360;2023-05-10T06:55:04;15.10;99.90
3756;DHT22;1893;52.526;13.360;2023-05-10T06:57:30;15.10;99.90
3756;DHT22;1893;52.526;13.360;2023-05-10T06:59:56;15.30;99.90
3756;DHT22;1893;52.526;13.360;2023-05-10T07:02:22;15.50;99.90
3756;DHT22;1893;52.526;13.360;2023-05-10T07:04:48;15.50;99.90
3756;DHT22;1893;52.526;13.360;2023-05-10T07:07:14;15.80;99.90
3756;DHT22;1893;52.526;13.360;2023-05-10T07:09:40;15.70;99.90
3756;DHT22;1893;52.526;13.360;2023-05-10T07:12:05;16.00;99.90
3756;DHT22;1893;52.526;13.360;2023-05-10T07:14:31;16.20;99.90
3756;DHT22;1893;52.526;13.360;2023-05-10T07:16:56;16.10;99.10
3756;DHT22;1893;52.526;13.360;2023-05-10T07:19:22;16.10;99.40
3756;DHT22;1893;52.526;13.360;2023-05-10T07:21:48;16.40;98.60
3756;DHT22;1893;52.526;13.360;2023-05-10T07:24:14;16.40;98.70
3756;DHT22;1893;52.526;13.360;2023-05-10T07:26:39;17.00;98.70
3756;DHT22;1893;52.526;13.360;2023-05-10T07:29:05;17.50;97.10
3756;DHT22;1893;52.526;13.360;2023-05-10T07:31:30;17.70;96.80
3756;DHT22;1893;52.526;13.360;2023-05-10T07:33:56;17.80;96.00
3756;DHT22;1893;52.526;13.360;2023-05-10T07:36:22;17.80;95.10
3756;DHT22;1893;52.526;13.360;2023-05-10T07:38:47;18.00;95.80
3756;DHT22;1893;52.526;13.360;2023-05-10T07:41:14;18.40;94.40
3756;DHT22;1893;52.526;13.360;2023-05-10T07:43:40;18.70;94.10
3756;DHT22;1893;52.526;13.360;2023-05-10T07:46:05;18.90;93.70
3756;DHT22;1893;52.526;13.360;2023-05-10T07:48:31;19.10;92.80
3756;DHT22;1893;52.526;13.360;2023-05-10T07:50:57;19.40;92.00
3756;DHT22;1893;52.526;13.360;2023-05-10T07:53:22;19.10;92.00
3756;DHT22;1893;52.526;13.360;2023-05-10T07:55:52;19.00;90.90
3756;DHT22;1893;52.526;13.360;2023-05-10T07:58:19;19.00;91.10
3756;DHT22;1893;52.526;13.360;2023-05-10T08:00:45;19.00;90.80
3756;DHT22;1893;52.526;13.360;2023-05-10T08:03:10;18.80;90.70
3756;DHT22;1893;52.526;13.360;2023-05-10T08:05:36;18.50;91.00
3756;DHT22;1893;52.526;13.360;2023-05-10T08:08:02;18.40;91.20
3756;DHT22;1893;52.526;13.360;2023-05-10T08:10:27;18.90;92.10
3756;DHT22;1893;52.526;13.360;2023-05-10T08:12:53;19.10;90.60
3756;DHT22;1893;52.526;13.360;2023-05-10T08:15:19;19.10;90.20
3756;DHT22;1893;52.526;13.360;2023-05-10T08:17:44;19.20;90.20
3756;DHT22;1893;52.526;13.360;2023-05-10T08:20:10;19.60;91.50
3756;DHT22;1893;52.526;13.360;2023-05-10T08:22:38;20.00;89.80
3756;DHT22;1893;52.526;13.360;2023-05-10T08:25:03;20.10;87.00
3756;DHT22;1893;52.526;13.360;2023-05-10T08:27:29;20.20;86.00
3756;DHT22;1893;52.526;13.360;2023-05-10T08:29:55;20.10;85.80
3756;DHT22;1893;52.526;13.360;2023-05-10T08:32:20;20.20;85.20
3756;DHT22;1893;52.526;13.360;2023-05-10T08:34:46;20.10;85.30
3756;DHT22;1893;52.526;13.360;2023-05-10T08:37:12;20.40;83.60
3756;DHT22;1893;52.526;13.360;2023-05-10T08:39:38;20.00;84.10
3756;DHT22;1893;52.526;13.360;2023-05-10T08:42:04;20.40;85.00
3756;DHT22;1893;52.526;13.360;2023-05-10T08:44:35;20.30;82.70
3756;DHT22;1893;52.526;13.360;2023-05-10T08:47:04;20.40;81.70
3756;DHT22;1893;52.526;13.360;2023-05-10T08:49:32;20.80;82.70
3756;DHT22;1893;52.526;13.360;2023-05-10T08:52:01;20.40;81.30
3756;DHT22;1893;52.526;13.360;2023-05-10T08:54:28;20.20;81.50
3756;DHT22;1893;52.526;13.360;2023-05-10T08:56:55;20.80;81.40
3756;DHT22;1893;52.526;13.360;2023-05-10T08:59:22;21.40;80.60
3756;DHT22;1893;52.526;13.360;2023-05-10T09:01:48;21.90;77.50
3756;DHT22;1893;52.526;13.360;2023-05-10T09:04:14;21.20;77.10
3756;DHT22;1893;52.526;13.360;2023-05-10T09:06:41;21.40;77.80
3756;DHT22;1893;52.526;13.360;2023-05-10T09:09:07;22.20;76.70
3756;DHT22;1893;52.526;13.360;2023-05-10T09:11:33;22.40;74.70
3756;DHT22;1893;52.526;13.360;2023-05-10T09:13:59;22.30;74.60
3756;DHT22;1893;52.526;13.360;2023-05-10T09:16:25;22.20;73.50
3756;DHT22;1893;52.526;13.360;2023-05-10T09:18:50;23.20;73.90
3756;DHT22;1893;52.526;13.360;2023-05-10T09:21:16;23.50;69.70
3756;DHT22;1893;52.526;13.360;2023-05-10T09:23:45;22.90;68.70
3756;DHT22;1893;52.526;13.360;2023-05-10T09:26:12;23.00;69.30
3756;DHT22;1893;52.526;13.360;2023-05-10T09:28:57;23.50;68.80
3756;DHT22;1893;52.526;13.360;2023-05-10T09:31:24;23.40;67.40
3756;DHT22;1893;52.526;13.360;2023-05-10T09:33:53;23.30;66.30
3756;DHT22;1893;52.526;13.360;2023-05-10T09:36:18;23.20;67.20
3756;DHT22;1893;52.526;13.360;2023-05-10T09:38:51;23.00;65.30
3756;DHT22;1893;52.526;13.360;2023-05-10T09:41:24;23.40;65.50
3756;DHT22;1893;52.526;13.360;2023-05-10T09:43:50;23.10;64.30
3756;DHT22;1893;52.526;13.360;2023-05-10T09:46:20;23.30;63.80
3756;DHT22;1893;52.526;13.360;2023-05-10T09:48:47;24.20;65.10
3756;DHT22;1893;52.526;13.360;2023-05-10T09:51:23;24.00;62.10
3756;DHT22;1893;52.526;13.360;2023-05-10T09:54:09;23.90;60.80
3756;DHT22;1893;52.526;13.360;2023-05-10T09:56:36;23.70;62.50
3756;DHT22;1893;52.526;13.360;2023-05-10T09:59:04;23.40;62.50
3756;DHT22;1893;52.526;13.360;2023-05-10T10:01:30;24.40;61.60
3756;DHT22;1893;52.526;13.360;2023-05-10T10:03:56;23.70;61.80
3756;DHT22;1893;52.526;13.360;2023-05-10T10:06:23;24.40;62.10
3756;DHT22;1893;52.526;13.360;2023-05-10T10:08:50;25.10;59.20
3756;DHT22;1893;52.526;13.360;2023-05-10T10:11:16;24.70;58.50
3756;DHT22;1893;52.526;13.360;2023-05-10T10:13:42;24.20;58.70
3756;DHT22;1893;52.526;13.360;2023-05-10T10:16:08;23.90;58.50
3756;DHT22;1893;52.526;13.360;2023-05-10T10:18:36;23.30;59.10
3756;DHT22;1893;52.526;13.360;2023-05-10T10:21:07;23.80;60.60
3756;DHT22;1893;52.526;13.360;2023-05-10T10:23:35;24.70;58.60
3756;DHT22;1893;52.526;13.360;2023-05-10T10:26:04;24.60;58.20
3756;DHT22;1893;52.526;13.360;2023-05-10T10:28:45;24.80;56.10
3756;DHT22;1893;52.526;13.360;2023-05-10T10:31:22;24.80;57.90
3756;DHT22;1893;52.526;13.360;2023-05-10T10:34:00;25.10;55.90
3756;DHT22;1893;52.526;13.360;2023-05-10T10:36:27;25.10;54.30
3756;DHT22;1893;52.526;13.360;2023-05-10T10:39:08;25.50;53.90
3756;DHT22;1893;52.526;13.360;2023-05-10T10:41:39;24.30;56.00
3756;DHT22;1893;52.526;13.360;2023-05-10T10:54:53;26.30;51.20
3756;DHT22;1893;52.526;13.360;2023-05-10T10:57:22;26.50;51.80
3756;DHT22;1893;52.526;13.360;2023-05-10T10:59:47;25.50;50.80
3756;DHT22;1893;52.526;13.360;2023-05-10T11:02:44;24.80;51.50
3756;DHT22;1893;52.526;13.360;2023-05-10T11:05:24;24.60;52.60
3756;DHT22;1893;52.526;13.360;2023-05-10T11:07:55;25.50;52.90
3756;DHT22;1893;52.526;13.360;2023-05-10T11:10:25;25.60;51.80
3756;DHT22;1893;52.526;13.360;2023-05-10T11:13:08;24.80;52.60
3756;DHT22;1893;52.526;13.360;2023-05-10T11:15:39;24.00;53.20
3756;DHT22;1893;52.526;13.360;2023-05-10T11:18:18;24.10;53.20
3756;DHT22;1893;52.526;13.360;2023-05-10T11:20:50;23.90;52.60
3756;DHT22;1893;52.526;13.360;2023-05-10T11:23:16;24.10;53.20
3756;DHT22;1893;52.526;13.360;2023-05-10T11:25:44;24.10;51.00
3756;DHT22;1893;52.526;13.360;2023-05-10T11:28:10;23.40;51.90
3756;DHT22;1893;52.526;13.360;2023-05-10T11:30:38;23.80;53.30
3756;DHT22;1893;52.526;13.360;2023-05-10T11:33:05;24.40;54.10
3756;DHT22;1893;52.526;13.360;2023-05-10T11:35:31;24.30;53.10
3756;DHT22;1893;52.526;13.360;2023-05-10T11:38:01;24.40;50.80
3756;DHT22;1893;52.526;13.360;2023-05-10T11:40:27;24.10;51.70
3756;DHT22;1893;52.526;13.360;2023-05-10T11:42:56;23.90;51.60
3756;DHT22;1893;52.526;13.360;2023-05-10T11:45:23;23.50;51.80
3756;DHT22;1893;52.526;13.360;2023-05-10T11:47:49;23.80;53.40
3756;DHT22;1893;52.526;13.360;2023-05-10T11:50:16;23.90;53.20
3756;DHT22;1893;52.526;13.360;2023-05-10T11:52:42;24.10;53.70
3756;DHT22;1893;52.526;13.360;2023-05-10T11:55:07;23.90;52.60
3756;DHT22;1893;52.526;13.360;2023-05-10T11:57:33;23.20;52.00
3756;DHT22;1893;52.526;13.360;2023-05-10T11:59:59;22.80;51.20
3756;DHT22;1893;52.526;13.360;2023-05-10T12:02:25;22.40;52.40
3756;DHT22;1893;52.526;13.360;2023-05-10T12:04:51;22.50;52.90
3756;DHT22;1893;52.526;13.360;2023-05-10T12:07:17;22.70;54.10
3756;DHT22;1893;52.526;13.360;2023-05-10T12:10:02;22.60;51.50
3756;DHT22;1893;52.526;13.360;2023-05-10T12:12:41;22.70;53.40
3756;DHT22;1893;52.526;13.360;2023-05-10T12:17:44;23.00;52.50
3756;DHT22;1893;52.526;13.360;2023-05-10T12:20:27;23.10;53.80
3756;DHT22;1893;52.526;13.360;2023-05-10T12:22:54;23.30;54.30
3756;DHT22;1893;52.526;13.360;2023-05-10T12:25:22;23.60;53.40
3756;DHT22;1893;52.526;13.360;2023-05-10T12:27:57;23.00;51.90
3756;DHT22;1893;52.526;13.360;2023-05-10T12:32:49;22.70;52.70
3756;DHT22;1893;52.526;13.360;2023-05-10T12:35:15;23.20;53.90
3756;DHT22;1893;52.526;13.360;2023-05-10T12:37:42;23.10;51.60
3756;DHT22;1893;52.526;13.360;2023-05-10T12:40:09;23.10;52.20
3756;DHT22;1893;52.526;13.360;2023-05-10T12:42:37;22.90;52.80
3756;DHT22;1893;52.526;13.360;2023-05-10T12:45:04;23.10;53.30
3756;DHT22;1893;52.526;13.360;2023-05-10T12:47:31;23.10;52.70
3756;DHT22;1893;52.526;13.360;2023-05-10T12:49:56;23.00;52.70
3756;DHT22;1893;52.526;13.360;2023-05-10T12:52:22;22.80;54.10
3756;DHT22;1893;52.526;13.360;2023-05-10T12:54:48;22.60;53.20
3756;DHT22;1893;52.526;13.360;2023-05-10T12:57:14;22.90;54.10
3756;DHT22;1893;52.526;13.360;2023-05-10T12:59:40;23.00;54.70
3756;DHT22;1893;52.526;13.360;2023-05-10T13:02:06;22.90;55.40
3756;DHT22;1893;52.526;13.360;2023-05-10T13:04:32;22.90;55.90
3756;DHT22;1893;52.526;13.360;2023-05-10T13:06:57;23.10;54.90
3756;DHT22;1893;52.526;13.360;2023-05-10T13:09:27;23.20;54.40
3756;DHT22;1893;52.526;13.360;2023-05-10T13:11:54;23.10;53.10
3756;DHT22;1893;52.526;13.360;2023-05-10T13:14:20;22.80;53.00
3756;DHT22;1893;52.526;13.360;2023-05-10T13:16:46;23.00;54.00
3756;DHT22;1893;52.526;13.360;2023-05-10T13:19:13;23.00;52.80
3756;DHT22;1893;52.526;13.360;2023-05-10T13:21:39;22.70;53.90
3756;DHT22;1893;52.526;13.360;2023-05-10T13:24:07;22.80;54.50
3756;DHT22;1893;52.526;13.360;2023-05-10T13:26:32;22.70;53.90
3756;DHT22;1893;52.526;13.360;2023-05-10T13:28:58;23.20;55.20
3756;DHT22;1893;52.526;13.360;2023-05-10T13:31:24;23.10;53.20
3756;DHT22;1893;52.526;13.360;2023-05-10T13:33:50;23.00;53.50
3756;DHT22;1893;52.526;13.360;2023-05-10T13:36:16;22.70;54.40
3756;DHT22;1893;52.526;13.360;2023-05-10T13:38:42;23.00;54.30
3756;DHT22;1893;52.526;13.360;2023-05-10T13:41:07;23.40;53.90
3756;DHT22;1893;52.526;13.360;2023-05-10T13:43:33;23.70;52.90
3756;DHT22;1893;52.526;13.360;2023-05-10T13:45:58;23.70;50.90
3756;DHT22;1893;52.526;13.360;2023-05-10T13:48:24;23.50;50.70
3756;DHT22;1893;52.526;13.360;2023-05-10T13:50:50;23.40;50.40
3756;DHT22;1893;52.526;13.360;2023-05-10T13:53:15;23.30;50.40
3756;DHT22;1893;52.526;13.360;2023-05-10T13:55:41;23.00;50.50
3756;DHT22;1893;52.526;13.360;2023-05-10T13:58:07;22.80;50.90
3756;DHT22;1893;52.526;13.360;2023-05-10T14:00:32;23.00;52.40
3756;DHT22;1893;52.526;13.360;2023-05-10T14:02:58;23.10;52.70
3756;DHT22;1893;52.526;13.360;2023-05-10T14:05:24;23.10;51.10
3756;DHT22;1893;52.526;13.360;2023-05-10T14:07:50;22.90;51.30
3756;DHT22;1893;52.526;13.360;2023-05-10T14:10:16;23.20;49.50
3756;DHT22;1893;52.526;13.360;2023-05-10T14:12:41;23.00;46.10
3756;DHT22;1893;52.526;13.360;2023-05-10T14:15:07;22.90;46.70
3756;DHT22;1893;52.526;13.360;2023-05-10T14:17:35;23.00;48.00
3756;DHT22;1893;52.526;13.360;2023-05-10T14:20:01;22.90;48.80
3756;DHT22;1893;52.526;13.360;2023-05-10T14:22:27;23.10;49.60
3756;DHT22;1893;52.526;13.360;2023-05-10T14:24:52;22.90;49.30
3756;DHT22;1893;52.526;13.360;2023-05-10T14:27:18;23.10;49.20
3756;DHT22;1893;52.526;13.360;2023-05-10T14:29:44;23.20;50.10
3756;DHT22;1893;52.526;13.360;2023-05-10T14:32:10;23.20;46.50
3756;DHT22;1893;52.526;13.360;2023-05-10T14:34:36;23.00;46.10
3756;DHT22;1893;52.526;13.360;2023-05-10T14:37:01;23.00;45.90
3756;DHT22;1893;52.526;13.360;2023-05-10T14:39:27;22.90;46.40
3756;DHT22;1893;52.526;13.360;2023-05-10T14:41:55;23.00;46.90
3756;DHT22;1893;52.526;13.360;2023-05-10T14:44:20;23.00;46.90
3756;DHT22;1893;52.526;13.360;2023-05-10T14:46:46;23.10;48.10
3756;DHT22;1893;52.526;13.360;2023-05-10T14:49:12;22.90;46.40
3756;DHT22;1893;52.526;13.360;2023-05-10T14:51:38;22.90;46.40
3756;DHT22;1893;52.526;13.360;2023-05-10T14:54:03;22.70;46.40
3756;DHT22;1893;52.526;13.360;2023-05-10T14:56:29;22.70;47.10
3756;DHT22;1893;52.526;13.360;2023-05-10T14:58:55;22.90;47.30
3756;DHT22;1893;52.526;13.360;2023-05-10T15:01:20;23.10;48.30
3756;DHT22;1893;52.526;13.360;2023-05-10T15:03:46;23.10;48.30
3756;DHT22;1893;52.526;13.360;2023-05-10T15:06:14;22.90;48.20
3756;DHT22;1893;52.526;13.360;2023-05-10T15:08:41;22.80;48.40
3756;DHT22;1893;52.526;13.360;2023-05-10T15:11:06;23.00;48.50
3756;DHT22;1893;52.526;13.360;2023-05-10T15:13:32;23.30;47.60
3756;DHT22;1893;52.526;13.360;2023-05-10T15:15:58;23.50;48.30
3756;DHT22;1893;52.526;13.360;2023-05-10T15:18:23;23.20;47.60
3756;DHT22;1893;52.526;13.360;2023-05-10T15:20:49;23.00;48.60
3756;DHT22;1893;52.526;13.360;2023-05-10T15:23:15;23.00;48.70
3756;DHT22;1893;52.526;13.360;2023-05-10T15:25:40;23.40;48.30
3756;DHT22;1893;52.526;13.360;2023-05-10T15:28:06;23.50;48.50
3756;DHT22;1893;52.526;13.360;2023-05-10T15:30:31;23.20;48.60
3756;DHT22;1893;52.526;13.360;2023-05-10T15:32:57;22.90;48.70
3756;DHT22;1893;52.526;13.360;2023-05-10T15:35:23;22.60;48.70
3756;DHT22;1893;52.526;13.360;2023-05-10T15:37:48;22.50;49.00
3756;DHT22;1893;52.526;13.360;2023-05-10T15:40:15;22.40;48.90
3756;DHT22;1893;52.526;13.360;2023-05-10T15:42:40;22.40;48.90
3756;DHT22;1893;52.526;13.360;2023-05-10T15:45:06;22.30;47.90
3756;DHT22;1893;52.526;13.360;2023-05-10T15:47:32;22.30;48.30
3756;DHT22;1893;52.526;13.360;2023-05-10T15:49:58;22.30;49.10
3756;DHT22;1893;52.526;13.360;2023-05-10T15:52:24;22.20;49.40
3756;DHT22;1893;52.526;13.360;2023-05-10T15:54:50;22.20;49.90
3756;DHT22;1893;52.526;13.360;2023-05-10T15:57:16;22.40;50.10
3756;DHT22;1893;52.526;13.360;2023-05-10T15:59:41;22.50;50.60
3756;DHT22;1893;52.526;13.360;2023-05-10T16:02:08;22.50;50.60
3756;DHT22;1893;52.526;13.360;2023-05-10T16:04:35;22.50;50.90
3756;DHT22;1893;52.526;13.360;2023-05-10T16:07:01;22.40;50.50
3756;DHT22;1893;52.526;13.360;2023-05-10T16:09:27;22.30;51.20
3756;DHT22;1893;52.526;13.360;2023-05-10T16:11:52;22.20;51.40
3756;DHT22;1893;52.526;13.360;2023-05-10T16:14:18;22.00;51.20
3756;DHT22;1893;52.526;13.360;2023-05-10T16:16:46;21.90;51.80